createdAt,value
2017-11-21T00:01:05.905Z,19.94
2017-11-21T00:02:18.633Z,19.89
2017-11-21T00:03:30.968Z,19.94
2017-11-21T00:04:42.800Z,20.01
2017-11-21T00:05:55.095Z,20.04
2017-11-21T00:07:07.342Z,20.05
2017-11-21T00:08:20.102Z,20.08
2017-11-21T00:09:32.411Z,20.04
2017-11-21T00:10:45.124Z,20.05
2017-11-21T00:11:57.844Z,20
2017-11-21T00:13:10.127Z,20.08
2017-11-21T00:14:22.842Z,20.12
2017-11-21T00:15:35.544Z,19.98
2017-11-21T00:16:48.232Z,19.95
2017-11-21T00:18:00.466Z,19.98
2017-11-21T00:19:13.229Z,19.95
2017-11-21T00:20:25.559Z,19.83
2017-11-21T00:21:38.313Z,19.82
2017-11-21T00:23:25.012Z,19.82
2017-11-21T00:24:37.672Z,19.86
2017-11-21T00:25:50.408Z,19.85
2017-11-21T00:27:03.086Z,19.8
2017-11-21T00:28:15.824Z,19.8
2017-11-21T00:29:28.596Z,19.83
2017-11-21T00:30:41.288Z,19.86
2017-11-21T00:31:54.013Z,19.8
2017-11-21T00:33:25.977Z,19.85
2017-11-21T00:34:38.757Z,19.85
2017-11-21T00:35:51.447Z,19.85
2017-11-21T00:37:04.635Z,19.79
2017-11-21T00:38:17.358Z,19.86
2017-11-21T00:39:30.094Z,19.85
2017-11-21T00:40:41.490Z,19.79
2017-11-21T00:41:53.773Z,19.87
2017-11-21T00:43:06.481Z,19.79
2017-11-21T00:44:27.454Z,19.72
2017-11-21T00:45:40.147Z,19.85
2017-11-21T00:46:52.433Z,19.71
2017-11-21T00:48:05.159Z,19.72
2017-11-21T00:49:17.900Z,19.68
2017-11-21T00:50:29.777Z,19.79
2017-11-21T00:51:42.493Z,19.79
2017-11-21T00:52:55.198Z,19.83
2017-11-21T00:54:07.937Z,19.76
2017-11-21T00:55:20.159Z,19.82
2017-11-21T00:56:32.874Z,19.65
2017-11-21T00:57:45.608Z,19.75
2017-11-21T00:58:57.828Z,19.78
2017-11-21T01:00:10.516Z,19.7
2017-11-21T01:01:23.177Z,19.8
2017-11-21T01:02:35.452Z,19.83
2017-11-21T01:03:48.187Z,19.82
2017-11-21T01:05:01.098Z,19.78
2017-11-21T01:06:17.175Z,19.86
2017-11-21T01:07:29.413Z,19.85
2017-11-21T01:08:41.701Z,19.9
2017-11-21T01:09:54.406Z,19.87
2017-11-21T01:11:07.119Z,20
2017-11-21T01:12:19.444Z,19.97
2017-11-21T01:13:32.182Z,19.92
2017-11-21T01:14:44.467Z,20.02
2017-11-21T01:15:57.191Z,20.05
2017-11-21T01:17:34.386Z,19.95
2017-11-21T01:18:46.614Z,20
2017-11-21T01:19:59.341Z,19.86
2017-11-21T01:21:12.084Z,19.89
2017-11-21T01:22:24.809Z,19.82
2017-11-21T01:23:37.563Z,19.94
2017-11-21T01:24:50.265Z,19.86
2017-11-21T01:26:03.053Z,19.83
2017-11-21T01:27:18.421Z,19.85
2017-11-21T01:28:52.310Z,19.94
2017-11-21T01:30:04.641Z,19.94
2017-11-21T01:31:17.421Z,20
2017-11-21T01:32:30.203Z,19.92
2017-11-21T01:33:42.532Z,19.92
2017-11-21T01:34:55.303Z,19.94
2017-11-21T01:36:08.091Z,19.94
2017-11-21T01:37:20.409Z,19.97
2017-11-21T01:38:33.197Z,19.95
2017-11-21T01:39:45.992Z,19.8
2017-11-21T01:40:58.796Z,19.85
2017-11-21T01:42:11.564Z,19.83
2017-11-21T01:43:24.338Z,19.8
2017-11-21T01:44:37.137Z,19.83
2017-11-21T01:45:49.914Z,19.83
2017-11-21T01:47:02.688Z,19.86
2017-11-21T01:48:15.466Z,19.83
2017-11-21T01:49:48.785Z,19.85
2017-11-21T01:51:01.119Z,19.92
2017-11-21T01:52:13.896Z,19.92
2017-11-21T01:53:26.218Z,19.8
2017-11-21T01:54:38.975Z,19.85
2017-11-21T01:55:51.737Z,19.94
2017-11-21T01:57:04.040Z,19.85
2017-11-21T01:58:16.369Z,19.82
2017-11-21T01:59:32.401Z,19.8
2017-11-21T02:01:05.246Z,19.83
2017-11-21T02:02:17.470Z,19.8
2017-11-21T02:03:30.155Z,19.82
2017-11-21T02:04:42.822Z,19.7
2017-11-21T02:05:55.083Z,19.85
2017-11-21T02:07:06.863Z,19.83
2017-11-21T02:08:19.546Z,19.83
2017-11-21T02:09:31.825Z,19.89
2017-11-21T02:10:44.420Z,19.8
2017-11-21T02:12:04.755Z,19.78
2017-11-21T02:13:17.460Z,19.82
2017-11-21T02:14:30.162Z,19.83
2017-11-21T02:15:42.800Z,19.83
2017-11-21T02:16:55.514Z,19.86
2017-11-21T02:18:08.249Z,19.83
2017-11-21T02:19:20.889Z,19.86
2017-11-21T02:20:33.126Z,19.78
2017-11-21T02:21:45.882Z,19.83
2017-11-21T02:22:58.574Z,19.86
2017-11-21T02:24:11.285Z,19.89
2017-11-21T02:25:24.081Z,19.8
2017-11-21T02:26:36.766Z,19.86
2017-11-21T02:27:49.495Z,19.83
2017-11-21T02:29:02.238Z,19.79
2017-11-21T02:30:14.892Z,19.85
2017-11-21T02:31:27.706Z,19.8
2017-11-21T02:32:50.442Z,19.83
2017-11-21T02:34:02.739Z,19.83
2017-11-21T02:35:15.391Z,19.8
2017-11-21T02:36:28.107Z,19.79
2017-11-21T02:37:40.353Z,19.83
2017-11-21T02:38:52.642Z,19.85
2017-11-21T02:40:04.871Z,19.82
2017-11-21T02:41:17.098Z,19.85
2017-11-21T02:42:29.811Z,19.83
2017-11-21T02:43:42.536Z,19.9
2017-11-21T02:44:55.205Z,19.97
2017-11-21T02:46:07.045Z,19.85
2017-11-21T02:47:19.747Z,19.85
2017-11-21T02:48:32.005Z,19.86
2017-11-21T02:49:44.725Z,19.82
2017-11-21T02:50:56.543Z,19.85
2017-11-21T02:52:08.782Z,19.78
2017-11-21T02:53:25.321Z,19.83
2017-11-21T02:54:55.825Z,19.83
2017-11-21T02:56:08.479Z,19.85
2017-11-21T02:57:21.154Z,19.98
2017-11-21T02:58:33.805Z,19.95
2017-11-21T02:59:46.431Z,19.94
2017-11-21T03:00:58.614Z,20.08
2017-11-21T03:02:11.233Z,20.04
2017-11-21T03:03:23.888Z,20.02
2017-11-21T03:04:39.676Z,20
2017-11-21T03:06:03.202Z,20.15
2017-11-21T03:07:15.861Z,20.16
2017-11-21T03:08:28.120Z,20.16
2017-11-21T03:09:40.432Z,20.12
2017-11-21T03:10:53.196Z,20.12
2017-11-21T03:12:05.481Z,20.16
2017-11-21T03:13:18.200Z,20.2
2017-11-21T03:14:30.865Z,20.16
2017-11-21T03:15:47.440Z,20.2
2017-11-21T03:17:01.410Z,20.08
2017-11-21T03:18:14.131Z,20.17
2017-11-21T03:19:26.794Z,20.17
2017-11-21T03:20:38.981Z,20.16
2017-11-21T03:21:51.208Z,20.2
2017-11-21T03:23:03.453Z,20.19
2017-11-21T03:24:16.188Z,20.17
2017-11-21T03:25:28.932Z,20.2
2017-11-21T03:26:41.686Z,20.16
2017-11-21T03:27:54.444Z,20.22
2017-11-21T03:29:07.193Z,20.23
2017-11-21T03:30:19.603Z,20.31
2017-11-21T03:31:32.366Z,20.31
2017-11-21T03:32:45.118Z,20.3
2017-11-21T03:33:57.422Z,20.22
2017-11-21T03:35:10.184Z,20.17
2017-11-21T03:36:22.954Z,20.25
2017-11-21T03:37:40.943Z,20.3
2017-11-21T03:38:56.705Z,20.37
2017-11-21T03:40:08.995Z,20.33
2017-11-21T03:41:20.841Z,20.26
2017-11-21T03:42:33.584Z,20.37
2017-11-21T03:43:46.338Z,20.19
2017-11-21T03:44:59.113Z,20.31
2017-11-21T03:46:11.877Z,20.2
2017-11-21T03:47:24.644Z,20.25
2017-11-21T03:48:37.421Z,20.31
2017-11-21T03:49:50.194Z,20.34
2017-11-21T03:51:02.953Z,20.35
2017-11-21T03:52:15.280Z,20.38
2017-11-21T03:53:27.603Z,20.4
2017-11-21T03:54:40.373Z,20.35
2017-11-21T03:55:53.128Z,20.27
2017-11-21T03:57:05.935Z,20.33
2017-11-21T03:58:18.723Z,20.34
2017-11-21T03:59:44.559Z,20.4
2017-11-21T04:00:57.342Z,20.33
2017-11-21T04:02:09.683Z,20.27
2017-11-21T04:03:21.989Z,20.34
2017-11-21T04:04:34.769Z,20.25
2017-11-21T04:05:47.548Z,20.31
2017-11-21T04:06:59.893Z,20.26
2017-11-21T04:08:12.682Z,20.25
2017-11-21T04:09:38.912Z,20.25
2017-11-21T04:11:02.508Z,20.23
2017-11-21T04:12:14.826Z,20.27
2017-11-21T04:13:27.620Z,20.33
2017-11-21T04:14:40.386Z,20.33
2017-11-21T04:15:53.147Z,20.3
2017-11-21T04:17:05.843Z,20.35
2017-11-21T04:18:18.605Z,20.41
2017-11-21T04:19:31.266Z,20.33
2017-11-21T04:20:49.506Z,20.38
2017-11-21T04:22:01.659Z,20.38
2017-11-21T04:23:14.322Z,20.34
2017-11-21T04:24:27.021Z,20.3
2017-11-21T04:25:39.221Z,20.34
2017-11-21T04:26:51.928Z,20.34
2017-11-21T04:28:04.610Z,20.31
2017-11-21T04:29:17.265Z,20.35
2017-11-21T04:30:29.981Z,20.26
2017-11-21T04:31:42.638Z,20.34
2017-11-21T04:32:55.382Z,20.34
2017-11-21T04:34:08.074Z,20.23
2017-11-21T04:35:20.811Z,20.26
2017-11-21T04:36:33.525Z,20.23
2017-11-21T04:43:58.433Z,20.12
2017-11-21T04:45:11.124Z,20.1
2017-11-21T04:46:23.735Z,20.12
2017-11-21T04:47:35.989Z,20.12
2017-11-21T04:48:48.609Z,20.19
2017-11-21T04:50:01.242Z,20.22
2017-11-21T04:51:13.468Z,20.15
2017-11-21T04:52:26.141Z,20.19
2017-11-21T04:53:38.807Z,20.17
2017-11-21T04:54:51.466Z,20.22
2017-11-21T04:56:04.158Z,20.17
2017-11-21T04:57:16.859Z,20.3
2017-11-21T04:58:29.529Z,20.27
2017-11-21T04:59:42.255Z,20.34
2017-11-21T05:00:54.970Z,20.25
2017-11-21T05:02:06.304Z,20.34
2017-11-21T05:03:18.978Z,20.4
2017-11-21T05:04:31.672Z,20.35
2017-11-21T05:05:44.369Z,20.37
2017-11-21T05:06:57.067Z,20.27
2017-11-21T05:08:09.314Z,20.31
2017-11-21T05:09:21.522Z,20.34
2017-11-21T05:10:34.128Z,20.35
2017-11-21T05:11:46.762Z,20.34
2017-11-21T05:12:59.403Z,20.35
2017-11-21T05:14:11.640Z,20.38
2017-11-21T05:15:24.250Z,20.33
2017-11-21T05:16:36.880Z,20.2
2017-11-21T05:17:49.556Z,20.22
2017-11-21T05:19:02.171Z,20.16
2017-11-21T05:20:14.400Z,20.22
2017-11-21T05:21:27.059Z,20.17
2017-11-21T05:22:39.749Z,20.12
2017-11-21T05:23:51.926Z,20.2
2017-11-21T05:25:04.495Z,20.3
2017-11-21T05:26:17.193Z,20.22
2017-11-21T05:27:29.821Z,20.19
2017-11-21T05:28:42.514Z,20.23
2017-11-21T05:29:54.728Z,20.25
2017-11-21T05:31:07.308Z,20.33
2017-11-21T05:32:19.935Z,20.35
2017-11-21T05:33:32.553Z,20.2
2017-11-21T05:34:45.200Z,20.02
2017-11-21T05:35:57.406Z,20.13
2017-11-21T05:37:09.661Z,20.08
2017-11-21T05:38:22.346Z,20.04
2017-11-21T05:39:35.047Z,20.05
2017-11-21T05:40:47.673Z,20.12
2017-11-21T05:42:00.293Z,20.02
2017-11-21T05:43:12.520Z,19.94
2017-11-21T05:44:25.219Z,20.01
2017-11-21T05:45:37.940Z,20.05
2017-11-21T05:46:50.588Z,20.1
2017-11-21T05:48:03.260Z,20.13
2017-11-21T05:49:15.907Z,20.15
2017-11-21T05:50:28.587Z,20.08
2017-11-21T05:51:41.294Z,20.12
2017-11-21T05:52:53.929Z,20.02
2017-11-21T05:54:06.611Z,20.17
2017-11-21T05:55:19.277Z,20.1
2017-11-21T05:56:31.581Z,20.1
2017-11-21T05:57:44.202Z,20.17
2017-11-21T05:58:56.869Z,20.17
2017-11-21T06:00:09.122Z,20.3
2017-11-21T06:01:21.350Z,20.3
2017-11-21T06:02:34.041Z,20.33
2017-11-21T06:03:46.742Z,20.37
2017-11-21T06:04:59.412Z,20.34
2017-11-21T06:06:11.597Z,20.27
2017-11-21T06:07:24.173Z,20.33
2017-11-21T06:08:36.827Z,20.41
2017-11-21T06:09:49.447Z,20.42
2017-11-21T06:11:02.113Z,20.42
2017-11-21T06:12:14.285Z,20.4
2017-11-21T06:13:26.884Z,20.44
2017-11-21T06:14:38.635Z,20.35
2017-11-21T06:15:51.265Z,20.44
2017-11-21T06:17:03.930Z,20.34
2017-11-21T06:18:16.598Z,20.4
2017-11-21T06:19:29.304Z,20.35
2017-11-21T06:20:41.975Z,20.33
2017-11-21T06:21:54.812Z,20.38
2017-11-21T06:23:07.457Z,20.4
2017-11-21T06:24:20.141Z,20.31
2017-11-21T06:25:32.807Z,20.16
2017-11-21T06:26:45.460Z,20.2
2017-11-21T06:27:57.688Z,20.26
2017-11-21T06:29:10.362Z,20.3
2017-11-21T06:30:22.995Z,20.34
2017-11-21T06:31:35.206Z,20.38
2017-11-21T06:32:47.406Z,20.27
2017-11-21T06:34:00.089Z,20.31
2017-11-21T06:35:12.836Z,20.22
2017-11-21T06:36:25.524Z,20.2
2017-11-21T06:37:37.771Z,20.33
2017-11-21T06:38:50.472Z,20.26
2017-11-21T06:40:03.177Z,20.26
2017-11-21T06:41:15.461Z,20.3
2017-11-21T06:42:27.722Z,20.38
2017-11-21T06:43:39.962Z,20.38
2017-11-21T06:44:52.621Z,20.34
2017-11-21T06:46:05.304Z,20.37
2017-11-21T06:47:17.110Z,20.4
2017-11-21T06:48:29.862Z,20.35
2017-11-21T06:49:42.146Z,20.37
2017-11-21T06:50:54.865Z,20.37
2017-11-21T06:52:07.609Z,20.4
2017-11-21T06:53:19.855Z,20.44
2017-11-21T06:54:32.109Z,20.4
2017-11-21T06:55:44.856Z,20.38
2017-11-21T06:56:57.561Z,20.37
2017-11-21T06:58:09.362Z,20.42
2017-11-21T06:59:22.084Z,20.48
2017-11-21T07:00:34.817Z,20.41
2017-11-21T07:01:47.541Z,20.46
2017-11-21T07:03:00.308Z,20.46
2017-11-21T07:04:12.130Z,20.48
2017-11-21T07:05:24.858Z,20.42
2017-11-21T07:06:37.552Z,20.44
2017-11-21T07:07:50.237Z,20.4
2017-11-21T07:09:02.503Z,20.42
2017-11-21T07:10:15.233Z,20.35
2017-11-21T07:11:27.043Z,20.37
2017-11-21T07:12:39.773Z,20.31
2017-11-21T07:13:52.048Z,20.26
2017-11-21T07:15:04.758Z,20.35
2017-11-21T07:16:17.133Z,20.33
2017-11-21T07:17:29.422Z,20.31
2017-11-21T07:18:41.235Z,20.33
2017-11-21T07:19:53.491Z,20.35
2017-11-21T07:21:05.791Z,20.4
2017-11-21T07:22:18.188Z,20.5
2017-11-21T07:23:30.919Z,20.35
2017-11-21T07:24:43.663Z,20.3
2017-11-21T07:25:55.959Z,20.19
2017-11-21T07:27:08.725Z,20.1
2017-11-21T07:28:21.505Z,20.16
2017-11-21T07:29:34.271Z,20.17
2017-11-21T07:30:47.050Z,20.19
2017-11-21T07:31:59.375Z,20.17
2017-11-21T07:33:12.161Z,20.15
2017-11-21T07:34:24.946Z,20.2
2017-11-21T07:35:37.735Z,20.12
2017-11-21T07:36:50.098Z,20.16
2017-11-21T07:38:02.875Z,20.19
2017-11-21T07:39:15.632Z,20.2
2017-11-21T07:40:28.421Z,20.23
2017-11-21T07:41:40.665Z,20.16
2017-11-21T07:42:52.951Z,20.22
2017-11-21T07:44:05.672Z,20.25
2017-11-21T07:45:18.329Z,20.22
2017-11-21T07:46:31.062Z,20.17
2017-11-21T07:47:43.735Z,20.27
2017-11-21T07:48:56.465Z,20.3
2017-11-21T07:50:08.754Z,20.23
2017-11-21T07:51:21.061Z,20.3
2017-11-21T07:52:33.318Z,20.23
2017-11-21T07:53:45.972Z,20.17
2017-11-21T07:54:58.705Z,20.13
2017-11-21T07:56:10.976Z,20.12
2017-11-21T07:57:23.201Z,20.05
2017-11-21T07:58:35.874Z,20.13
2017-11-21T07:59:48.571Z,20.12
2017-11-21T08:01:01.273Z,20.08
2017-11-21T08:02:13.994Z,20.13
2017-11-21T08:03:26.713Z,20.15
2017-11-21T08:04:39.415Z,20.19
2017-11-21T08:05:52.210Z,20.17
2017-11-21T08:07:04.917Z,20.19
2017-11-21T08:08:17.628Z,20.25
2017-11-21T08:09:30.333Z,20.23
2017-11-21T08:10:42.558Z,20.2
2017-11-21T08:11:55.214Z,20.22
2017-11-21T08:13:07.890Z,20.12
2017-11-21T08:14:20.621Z,20.01
2017-11-21T08:15:33.308Z,20.13
2017-11-21T08:16:45.966Z,20.04
2017-11-21T08:17:58.664Z,20.08
2017-11-21T08:19:10.887Z,20.1
2017-11-21T08:20:23.646Z,20.04
2017-11-21T08:21:36.359Z,19.98
2017-11-21T08:22:49.083Z,20.08
2017-11-21T08:24:01.790Z,20.04
2017-11-21T08:25:14.524Z,20.01
2017-11-21T08:26:26.820Z,20.13
2017-11-21T08:27:39.160Z,20.12
2017-11-21T08:28:51.471Z,20.16
2017-11-21T08:30:04.179Z,20.12
2017-11-21T08:31:16.416Z,20.17
2017-11-21T08:32:29.097Z,20.22
2017-11-21T08:33:41.799Z,20.17
2017-11-21T08:34:54.481Z,20.27
2017-11-21T08:36:07.164Z,20.38
2017-11-21T08:37:18.990Z,20.33
2017-11-21T08:38:31.729Z,20.37
2017-11-21T08:39:43.948Z,20.15
2017-11-21T08:40:56.634Z,20.23
2017-11-21T08:42:08.950Z,20.19
2017-11-21T08:43:21.713Z,20.25
2017-11-21T08:44:34.380Z,20.2
2017-11-21T08:45:47.083Z,20.27
2017-11-21T08:46:59.292Z,20.16
2017-11-21T08:48:11.981Z,20.41
2017-11-21T08:49:24.721Z,20.33
2017-11-21T08:50:37.421Z,20.33
2017-11-21T08:51:50.112Z,20.34
2017-11-21T08:53:02.750Z,20.38
2017-11-21T08:54:14.991Z,20.42
2017-11-21T08:55:27.630Z,20.34
2017-11-21T08:56:40.341Z,20.48
2017-11-21T08:57:52.982Z,20.46
2017-11-21T08:59:05.157Z,20.56
2017-11-21T09:00:17.395Z,20.48
2017-11-21T09:01:29.688Z,20.51
2017-11-21T09:02:41.948Z,20.58
2017-11-21T09:03:54.679Z,20.57
2017-11-21T09:05:07.340Z,20.56
2017-11-21T09:06:20.028Z,20.56
2017-11-21T09:07:32.663Z,20.63
2017-11-21T09:08:44.460Z,20.71
2017-11-21T09:09:56.704Z,20.69
2017-11-21T09:11:09.390Z,20.71
2017-11-21T09:12:22.062Z,20.71
2017-11-21T09:13:34.760Z,20.76
2017-11-21T09:14:47.428Z,20.82
2017-11-21T09:16:00.116Z,20.82
2017-11-21T09:17:12.866Z,20.71
2017-11-21T09:18:25.526Z,20.82
2017-11-21T09:19:37.792Z,20.76
2017-11-21T09:20:50.496Z,20.82
2017-11-21T09:22:03.187Z,20.88
2017-11-21T09:23:15.020Z,20.81
2017-11-21T09:24:27.651Z,20.93
2017-11-21T09:25:40.316Z,21
2017-11-21T09:26:52.576Z,20.96
2017-11-21T09:28:05.291Z,20.97
2017-11-21T09:29:18.052Z,21.09
2017-11-21T09:30:30.762Z,20.94
2017-11-21T09:31:43.464Z,20.83
2017-11-21T09:32:56.188Z,20.71
2017-11-21T09:34:08.893Z,20.72
2017-11-21T09:35:21.571Z,20.73
2017-11-21T09:36:34.273Z,20.83
2017-11-21T09:37:47.001Z,20.91
2017-11-21T09:38:59.251Z,20.93
2017-11-21T09:40:11.471Z,20.98
2017-11-21T09:41:23.737Z,21.06
2017-11-21T09:42:36.395Z,21.12
2017-11-21T09:43:49.180Z,21.11
2017-11-21T09:45:01.453Z,21.22
2017-11-21T09:46:14.066Z,21.24
2017-11-21T09:47:26.285Z,21.16
2017-11-21T09:48:38.973Z,21.22
2017-11-21T09:49:51.159Z,21.26
2017-11-21T09:51:03.890Z,21.31
2017-11-21T09:52:16.182Z,21.24
2017-11-21T09:53:28.447Z,21.27
2017-11-21T09:54:41.257Z,21.31
2017-11-21T09:55:53.939Z,21.34
2017-11-21T09:57:06.648Z,21.33
2017-11-21T09:58:19.302Z,21.26
2017-11-21T09:59:32.056Z,21.38
2017-11-21T10:00:44.802Z,21.38
2017-11-21T10:01:57.515Z,21.38
2017-11-21T10:03:10.278Z,21.37
2017-11-21T10:04:22.569Z,21.43
2017-11-21T10:05:35.316Z,21.38
2017-11-21T10:06:47.629Z,21.56
2017-11-21T10:08:00.345Z,21.64
2017-11-21T10:09:13.047Z,21.64
2017-11-21T10:10:25.292Z,21.67
2017-11-21T10:11:38.064Z,21.67
2017-11-21T10:12:50.816Z,21.68
2017-11-21T10:14:03.557Z,21.66
2017-11-21T10:15:16.314Z,21.75
2017-11-21T10:16:29.070Z,21.74
2017-11-21T10:17:41.349Z,21.82
2017-11-21T10:18:54.021Z,21.82
2017-11-21T10:20:06.699Z,21.94
2017-11-21T10:21:18.916Z,22.02
2017-11-21T10:22:31.126Z,22.02
2017-11-21T10:23:43.884Z,22.01
2017-11-21T10:24:56.589Z,22.11
2017-11-21T10:26:09.327Z,22.17
2017-11-21T10:27:22.045Z,22.12
2017-11-21T10:28:34.740Z,22.12
2017-11-21T10:29:47.468Z,22.15
2017-11-21T10:31:00.221Z,22.3
2017-11-21T10:32:12.920Z,22.39
2017-11-21T10:33:25.663Z,22.33
2017-11-21T10:34:37.970Z,22.44
2017-11-21T10:35:50.648Z,22.45
2017-11-21T10:37:03.344Z,22.49
2017-11-21T10:38:16.096Z,22.56
2017-11-21T10:39:42.849Z,22.64
2017-11-21T10:40:55.531Z,22.67
2017-11-21T10:42:08.202Z,22.7
2017-11-21T10:43:20.509Z,22.79
2017-11-21T10:44:33.256Z,22.86
2017-11-21T10:45:45.922Z,22.76
2017-11-21T10:46:58.589Z,22.91
2017-11-21T10:48:11.313Z,22.85
2017-11-21T10:49:24.020Z,22.88
2017-11-21T10:50:36.310Z,22.91
2017-11-21T10:51:49.069Z,22.88
2017-11-21T10:53:01.343Z,22.97
2017-11-21T10:54:13.608Z,23.07
2017-11-21T10:55:26.291Z,23.06
2017-11-21T10:56:38.551Z,23.12
2017-11-21T10:57:50.830Z,23.23
2017-11-21T10:59:03.107Z,23.29
2017-11-21T11:00:34.465Z,23.26
2017-11-21T11:01:48.337Z,23.29
2017-11-21T11:03:01.026Z,23.32
2017-11-21T11:04:13.780Z,23.39
2017-11-21T11:05:26.573Z,23.32
2017-11-21T11:06:39.286Z,23.25
2017-11-21T11:07:51.569Z,23.32
2017-11-21T11:09:03.402Z,23.34
2017-11-21T11:10:16.168Z,23.29
2017-11-21T11:11:28.440Z,23.34
2017-11-21T11:12:41.181Z,23.29
2017-11-21T11:13:53.465Z,23.37
2017-11-21T11:15:06.250Z,23.26
2017-11-21T11:16:19.096Z,23.38
2017-11-21T11:17:31.397Z,23.41
2017-11-21T11:18:44.124Z,23.45
2017-11-21T11:19:56.846Z,23.5
2017-11-21T11:21:09.126Z,23.56
2017-11-21T11:22:50.502Z,23.62
2017-11-21T11:24:03.255Z,23.68
2017-11-21T11:25:15.541Z,23.78
2017-11-21T11:26:27.779Z,23.86
2017-11-21T11:27:40.518Z,23.99
2017-11-21T11:28:53.250Z,24.05
2017-11-21T11:30:05.454Z,23.97
2017-11-21T11:31:18.162Z,23.97
2017-11-21T11:32:50.926Z,23.96
2017-11-21T11:34:03.678Z,24.02
2017-11-21T11:35:16.393Z,23.99
2017-11-21T11:36:28.658Z,24
2017-11-21T11:37:41.381Z,23.89
2017-11-21T11:38:53.602Z,23.9
2017-11-21T11:40:05.812Z,23.96
2017-11-21T11:41:18.502Z,24.02
2017-11-21T11:42:31.220Z,24.09
2017-11-21T11:43:45.756Z,24.19
2017-11-21T11:45:08.813Z,24.26
2017-11-21T11:46:21.122Z,24.23
2017-11-21T11:47:33.428Z,24.29
2017-11-21T11:48:45.747Z,24.26
2017-11-21T11:49:58.466Z,24.23
2017-11-21T11:51:11.219Z,24.24
2017-11-21T11:52:23.494Z,24.08
2017-11-21T11:53:36.199Z,24
2017-11-21T11:54:48.965Z,24.05
2017-11-21T11:56:01.701Z,24.04
2017-11-21T11:57:14.055Z,24.11
2017-11-21T11:58:26.795Z,24.18
2017-11-21T11:59:39.550Z,24.33
2017-11-21T12:00:52.302Z,24.39
2017-11-21T12:02:04.648Z,24.37
2017-11-21T12:03:17.403Z,24.46
2017-11-21T12:04:29.656Z,24.41
2017-11-21T12:06:24.065Z,24.46
2017-11-21T12:07:36.717Z,24.37
2017-11-21T12:08:49.451Z,24.34
2017-11-21T12:10:01.763Z,24.31
2017-11-21T12:11:14.514Z,24.34
2017-11-21T12:12:26.793Z,24.31
2017-11-21T12:13:39.057Z,24.26
2017-11-21T12:14:51.353Z,24.04
2017-11-21T12:16:04.700Z,24.08
2017-11-21T12:17:16.748Z,23.96
2017-11-21T12:18:29.424Z,24.02
2017-11-21T12:19:42.162Z,24.15
2017-11-21T12:20:54.865Z,24.11
2017-11-21T12:22:07.571Z,24.12
2017-11-21T12:23:20.304Z,24.3
2017-11-21T12:24:33.018Z,24.36
2017-11-21T12:25:45.327Z,24.42
2017-11-21T12:27:05.288Z,24.53
2017-11-21T12:28:24.243Z,24.63
2017-11-21T12:29:37.000Z,24.71
2017-11-21T12:30:49.708Z,24.87
2017-11-21T12:32:02.426Z,24.89
2017-11-21T12:33:15.106Z,24.92
2017-11-21T12:34:27.394Z,24.92
2017-11-21T12:35:40.106Z,25.01
2017-11-21T12:36:51.925Z,25.07
2017-11-21T12:38:04.618Z,25.08
2017-11-21T12:39:17.327Z,25.27
2017-11-21T12:40:30.063Z,25.36
2017-11-21T12:41:42.794Z,25.27
2017-11-21T12:42:55.556Z,25.09
2017-11-21T12:44:08.333Z,25.12
2017-11-21T12:45:21.058Z,25.12
2017-11-21T12:46:33.772Z,25.14
2017-11-21T12:47:45.562Z,25.16
2017-11-21T12:49:01.616Z,24.93
2017-11-21T12:50:14.341Z,25.04
2017-11-21T12:51:27.087Z,25.12
2017-11-21T12:52:39.802Z,25.23
2017-11-21T12:53:52.534Z,25.27
2017-11-21T12:55:05.269Z,25.35
2017-11-21T12:56:17.549Z,25.46
2017-11-21T12:57:30.271Z,25.81
2017-11-21T12:58:42.527Z,25.86
2017-11-21T12:59:55.260Z,25.94
2017-11-21T13:01:07.524Z,26.11
2017-11-21T13:02:20.181Z,26.06
2017-11-21T13:03:32.881Z,25.86
2017-11-21T13:04:45.544Z,25.74
2017-11-21T13:05:57.819Z,25.29
2017-11-21T13:07:09.697Z,25.12
2017-11-21T13:08:22.464Z,25.14
2017-11-21T13:10:00.482Z,25.11
2017-11-21T13:11:23.090Z,25.24
2017-11-21T13:12:35.401Z,25.38
2017-11-21T13:13:47.721Z,25.51
2017-11-21T13:14:59.560Z,25.66
2017-11-21T13:16:12.317Z,25.89
2017-11-21T13:17:25.076Z,25.97
2017-11-21T13:18:37.858Z,26.08
2017-11-21T13:19:50.614Z,26.35
2017-11-21T13:21:10.834Z,26.31
2017-11-21T13:22:23.630Z,26.31
2017-11-21T13:23:36.415Z,26.47
2017-11-21T13:24:49.155Z,26.66
2017-11-21T13:26:01.463Z,26.65
2017-11-21T13:27:13.796Z,26.78
2017-11-21T13:28:26.819Z,26.69
2017-11-21T13:29:39.606Z,26.5
2017-11-21T13:30:52.414Z,26.59
2017-11-21T13:32:04.736Z,26.61
2017-11-21T13:33:17.483Z,26.65
2017-11-21T13:34:30.256Z,26.69
2017-11-21T13:35:43.051Z,26.73
2017-11-21T13:36:55.848Z,26.84
2017-11-21T13:38:08.181Z,26.79
2017-11-21T13:39:21.069Z,26.98
2017-11-21T13:40:33.411Z,27.05
2017-11-21T13:41:46.176Z,26.96
2017-11-21T13:42:58.949Z,27.09
2017-11-21T13:44:11.733Z,26.94
2017-11-21T13:45:24.480Z,26.93
2017-11-21T13:46:36.821Z,26.87
2017-11-21T13:47:49.597Z,26.87
2017-11-21T13:49:02.369Z,26.93
2017-11-21T13:50:15.120Z,27.08
2017-11-21T13:51:27.882Z,27.12
2017-11-21T13:52:40.196Z,27.06
2017-11-21T13:54:09.503Z,27.25
2017-11-21T13:55:22.290Z,27.43
2017-11-21T13:56:35.071Z,28.05
2017-11-21T13:57:47.859Z,28.46
2017-11-21T13:59:00.183Z,28.54
2017-11-21T14:00:12.961Z,28.57
2017-11-21T14:01:25.683Z,28.33
2017-11-21T14:02:37.909Z,28.13
2017-11-21T14:03:50.549Z,28.24
2017-11-21T14:05:03.194Z,28.11
2017-11-21T14:06:15.404Z,27.9
2017-11-21T14:07:28.150Z,27.72
2017-11-21T14:08:40.888Z,27.76
2017-11-21T14:09:53.651Z,28.15
2017-11-21T14:11:05.958Z,28.4
2017-11-21T14:12:18.694Z,28.38
2017-11-21T14:13:30.926Z,28.52
2017-11-21T14:14:42.746Z,28.8
2017-11-21T14:15:55.891Z,29.1
2017-11-21T14:17:08.175Z,29.03
2017-11-21T14:18:20.907Z,29.03
2017-11-21T14:19:33.597Z,28.98
2017-11-21T14:20:46.389Z,29.05
2017-11-21T14:21:59.063Z,29.07
2017-11-21T14:23:11.749Z,28.94
2017-11-21T14:24:24.002Z,28.57
2017-11-21T14:25:35.783Z,28.45
2017-11-21T14:26:48.020Z,28.6
2017-11-21T14:28:00.228Z,28.88
2017-11-21T14:29:12.954Z,29.27
2017-11-21T14:30:25.214Z,29.69
2017-11-21T14:31:37.957Z,29.47
2017-11-21T14:32:50.202Z,29.15
2017-11-21T14:34:02.915Z,28.89
2017-11-21T14:35:15.617Z,28.97
2017-11-21T14:36:27.852Z,29.05
2017-11-21T14:37:40.531Z,29.12
2017-11-21T14:38:52.767Z,28.89
2017-11-21T14:40:05.474Z,28.77
2017-11-21T14:41:18.146Z,28.77
2017-11-21T14:42:30.807Z,28.89
2017-11-21T14:43:43.494Z,29.21
2017-11-21T14:44:56.175Z,29.62
2017-11-21T14:46:08.889Z,29.32
2017-11-21T14:47:21.531Z,28.94
2017-11-21T14:48:34.181Z,28.98
2017-11-21T14:49:46.873Z,28.6
2017-11-21T14:50:59.493Z,28.6
2017-11-21T14:52:11.748Z,28.67
2017-11-21T14:53:24.420Z,28.73
2017-11-21T14:54:37.117Z,28.92
2017-11-21T14:55:49.817Z,29.02
2017-11-21T14:57:02.016Z,29.1
2017-11-21T14:58:14.664Z,29.12
2017-11-21T14:59:27.327Z,28.98
2017-11-21T15:00:40.002Z,29.03
2017-11-21T15:01:52.711Z,29.03
2017-11-21T15:03:05.441Z,29.05
2017-11-21T15:04:17.617Z,29.1
2017-11-21T15:05:30.254Z,29
2017-11-21T15:06:42.942Z,29.08
2017-11-21T15:07:55.641Z,28.95
2017-11-21T15:09:08.281Z,28.76
2017-11-21T15:10:20.947Z,28.77
2017-11-21T15:11:33.667Z,28.8
2017-11-21T15:12:46.396Z,28.7
2017-11-21T15:13:59.088Z,28.8
2017-11-21T15:15:10.917Z,28.85
2017-11-21T15:16:23.579Z,28.91
2017-11-21T15:17:36.272Z,29
2017-11-21T15:18:48.976Z,29.14
2017-11-21T15:20:01.652Z,29.07
2017-11-21T15:21:19.333Z,28.95
2017-11-21T15:22:43.090Z,28.8
2017-11-21T15:23:55.816Z,28.73
2017-11-21T15:25:08.515Z,28.7
2017-11-21T15:26:21.230Z,28.69
2017-11-21T15:27:33.918Z,28.62
2017-11-21T15:28:46.652Z,28.58
2017-11-21T15:29:59.336Z,28.52
2017-11-21T15:31:12.036Z,28.43
2017-11-21T15:32:24.737Z,28.24
2017-11-21T15:33:37.425Z,28.13
2017-11-21T15:34:50.233Z,28.25
2017-11-21T15:36:02.946Z,28.27
2017-11-21T15:37:14.747Z,28.45
2017-11-21T15:38:27.027Z,28.43
2017-11-21T15:39:38.815Z,28.36
2017-11-21T15:40:51.532Z,28.42
2017-11-21T15:42:03.715Z,28.51
2017-11-21T15:43:34.340Z,28.54
2017-11-21T15:44:47.024Z,28.67
2017-11-21T15:45:59.721Z,28.6
2017-11-21T15:47:12.446Z,28.48
2017-11-21T15:48:25.095Z,28.48
2017-11-21T15:49:37.759Z,28.27
2017-11-21T15:50:50.425Z,28.23
2017-11-21T15:52:02.687Z,28.06
2017-11-21T15:53:15.437Z,28.09
2017-11-21T15:54:28.174Z,28.2